Time;durP1;ratioP1;P1;durP2;ratioP2;P2;SDS_P1;SDS_P2;PMS_P1;PMS_P2;Temp;Humidity;BMP_temperature;BMP_pressure;BME280_temperature;BME280_humidity;BME280_pressure;Samples;Min_cycle;Max_cycle;Signal;HPM_P1;HPM_P2
2022/08/20 00:02:23;;;;;;;20.88;16.92;;;19.40;99.90;;;;;;5005584;28;20057;-86
2022/08/20 00:04:50;;;;;;;19.48;16.23;;;19.40;99.90;;;;;;5009852;28;20403;-87
2022/08/20 00:07:16;;;;;;;19.58;16.15;;;19.40;99.90;;;;;;5019096;28;20372;-85
2022/08/20 00:09:43;;;;;;;19.10;15.98;;;19.40;99.90;;;;;;5024004;28;20048;-86
2022/08/20 00:12:10;;;;;;;16.75;14.70;;;19.30;99.90;;;;;;5004004;28;20068;-85
2022/08/20 00:14:36;;;;;;;19.30;15.30;;;19.30;99.90;;;;;;5000348;28;20551;-85
2022/08/20 00:17:03;;;;;;;18.13;14.77;;;19.30;99.90;;;;;;5003742;28;20160;-87
2022/08/20 00:19:29;;;;;;;17.67;14.70;;;19.30;99.90;;;;;;5001738;28;20097;-86
2022/08/20 00:21:54;;;;;;;18.58;14.85;;;19.30;99.90;;;;;;5015962;28;20077;-86
2022/08/20 00:24:20;;;;;;;15.35;13.38;;;19.30;99.90;;;;;;5016099;28;20033;-87
2022/08/20 00:26:46;;;;;;;17.13;14.15;;;19.20;99.90;;;;;;5016075;28;20034;-85
2022/08/20 00:29:11;;;;;;;21.85;15.15;;;19.20;99.90;;;;;;4999380;28;20130;-85
2022/08/20 00:31:37;;;;;;;16.83;13.88;;;19.20;99.90;;;;;;4985635;28;20034;-86
2022/08/20 00:34:03;;;;;;;18.23;14.38;;;19.10;99.90;;;;;;4994678;28;20072;-86
2022/08/20 00:36:28;;;;;;;17.65;14.75;;;19.10;99.90;;;;;;5000039;28;20479;-86
2022/08/20 00:38:54;;;;;;;19.02;14.73;;;19.10;99.90;;;;;;4984080;28;20099;-85
2022/08/20 00:41:24;;;;;;;17.65;13.65;;;19.10;99.90;;;;;;4998331;28;20544;-86
2022/08/20 00:44:15;;;;;;;18.00;13.73;;;19.10;99.90;;;;;;4995376;28;20163;-86
2022/08/20 00:46:42;;;;;;;16.13;12.82;;;19.10;99.90;;;;;;4992759;28;20045;-87
2022/08/20 00:49:12;;;;;;;17.95;14.13;;;19.10;99.90;;;;;;4982169;28;20042;-86
2022/08/20 00:51:42;;;;;;;16.33;12.93;;;19.10;99.90;;;;;;5016944;28;20049;-86
2022/08/20 00:54:24;;;;;;;19.25;14.32;;;19.10;99.90;;;;;;5001972;28;20053;-87
2022/08/20 00:57:05;;;;;;;17.02;13.30;;;19.10;99.90;;;;;;5014056;28;20046;-86
2022/08/20 00:59:34;;;;;;;17.05;12.70;;;19.00;99.90;;;;;;5023893;28;20046;-86
2022/08/20 01:02:01;;;;;;;17.08;13.35;;;19.00;99.90;;;;;;5000141;28;20372;-85
2022/08/20 01:04:32;;;;;;;18.17;13.48;;;19.00;99.90;;;;;;4984232;28;20398;-86
2022/08/20 01:06:58;;;;;;;18.50;13.75;;;19.00;99.90;;;;;;5002087;28;20034;-85
2022/08/20 01:09:25;;;;;;;17.75;13.80;;;18.90;99.90;;;;;;5003278;28;20089;-86
2022/08/20 01:11:52;;;;;;;15.73;13.57;;;18.90;99.90;;;;;;4973197;28;20054;-85
2022/08/20 01:14:27;;;;;;;17.88;13.93;;;18.90;99.90;;;;;;4943489;28;20398;-86
2022/08/20 01:16:57;;;;;;;17.95;13.60;;;18.90;99.90;;;;;;4978911;28;20038;-85
2022/08/20 01:19:30;;;;;;;16.52;13.63;;;18.80;99.90;;;;;;4960595;28;20038;-86
2022/08/20 01:21:58;;;;;;;18.10;13.27;;;18.90;99.90;;;;;;4961564;28;20406;-85
2022/08/20 01:24:37;;;;;;;19.27;14.25;;;18.90;99.90;;;;;;4962142;28;20346;-87
2022/08/20 01:27:04;;;;;;;17.20;13.25;;;18.90;99.90;;;;;;4980103;28;20117;-87
2022/08/20 01:29:37;;;;;;;16.85;12.93;;;18.80;99.90;;;;;;4962042;28;20042;-85
2022/08/20 01:32:04;;;;;;;14.65;12.13;;;18.80;99.90;;;;;;4962491;28;20046;-86
2022/08/20 01:34:29;;;;;;;18.00;13.75;;;18.70;99.90;;;;;;4944919;28;20093;-87
2022/08/20 01:36:56;;;;;;;17.40;13.13;;;18.70;99.90;;;;;;4967378;28;20042;-87
2022/08/20 01:39:27;;;;;;;18.92;14.93;;;18.80;99.90;;;;;;4961464;28;20070;-86
2022/08/20 01:42:07;;;;;;;18.25;13.93;;;18.80;99.90;;;;;;4966434;28;20042;-87
2022/08/20 01:44:36;;;;;;;19.58;13.95;;;18.80;99.90;;;;;;4963347;28;20056;-87
2022/08/20 01:47:14;;;;;;;17.02;12.73;;;18.70;99.90;;;;;;4984685;28;20759;-87
2022/08/20 01:49:50;;;;;;;19.10;14.18;;;18.70;99.90;;;;;;4968472;28;20490;-87
2022/08/20 01:52:40;;;;;;;17.67;13.40;;;18.70;99.90;;;;;;4959057;28;20094;-87
2022/08/20 01:55:07;;;;;;;19.50;13.43;;;18.70;99.90;;;;;;4967304;28;20402;-86
2022/08/20 01:57:34;;;;;;;16.30;13.18;;;18.70;99.90;;;;;;4979232;28;20041;-87
2022/08/20 02:00:00;;;;;;;18.92;13.32;;;18.60;99.90;;;;;;4964662;28;20446;-88
2022/08/20 02:02:27;;;;;;;19.38;13.93;;;18.60;99.90;;;;;;4980755;28;20043;-87
2022/08/20 02:04:53;;;;;;;16.48;13.23;;;18.60;99.90;;;;;;4958688;28;20381;-87
2022/08/20 02:07:21;;;;;;;17.30;13.27;;;18.60;99.90;;;;;;4970130;28;20129;-87
2022/08/20 02:09:48;;;;;;;19.67;13.88;;;18.60;99.90;;;;;;4983086;28;20042;-87
2022/08/20 02:12:15;;;;;;;18.67;13.20;;;18.60;99.90;;;;;;4993910;28;20456;-88
2022/08/20 02:14:43;;;;;;;16.88;13.35;;;18.50;99.90;;;;;;4989759;28;20038;-88
2022/08/20 02:17:11;;;;;;;17.33;12.82;;;18.50;99.90;;;;;;5005790;28;20049;-88
2022/08/20 02:19:59;;;;;;;17.88;14.07;;;18.40;99.90;;;;;;4997877;28;20038;-88
2022/08/20 02:22:43;;;;;;;15.63;12.70;;;18.40;99.90;;;;;;5004251;28;20157;-87
2022/08/20 02:25:10;;;;;;;17.08;13.15;;;18.40;99.90;;;;;;5008050;28;20770;-88
2022/08/20 02:27:39;;;;;;;18.42;13.15;;;18.40;99.90;;;;;;4987753;28;20127;-87
2022/08/20 02:30:10;;;;;;;19.60;13.45;;;18.30;99.90;;;;;;4991941;28;20865;-88
2022/08/20 02:32:37;;;;;;;17.98;13.18;;;18.40;99.90;;;;;;4985839;28;20054;-89
2022/08/20 02:35:06;;;;;;;16.58;12.75;;;18.30;99.90;;;;;;5005458;28;20049;-87
2022/08/20 02:37:31;;;;;;;17.50;13.55;;;18.30;99.90;;;;;;5002963;28;20107;-88
2022/08/20 02:39:57;;;;;;;18.50;13.20;;;18.30;99.90;;;;;;5006855;28;20045;-88
2022/08/20 02:42:23;;;;;;;19.10;13.20;;;18.30;99.90;;;;;;5006154;28;20457;-88
2022/08/20 02:44:48;;;;;;;18.52;13.43;;;18.30;99.90;;;;;;4999187;28;20046;-88
2022/08/20 02:47:15;;;;;;;18.65;13.85;;;18.30;99.90;;;;;;4979271;28;20038;-89
2022/08/20 02:49:41;;;;;;;18.15;13.63;;;18.20;99.90;;;;;;4987953;28;20141;-89
2022/08/20 02:52:07;;;;;;;16.13;13.27;;;18.30;99.90;;;;;;5019005;28;20121;-89
2022/08/20 02:54:33;;;;;;;19.42;13.65;;;18.20;99.90;;;;;;5004581;28;20148;-88
2022/08/20 02:56:59;;;;;;;16.25;13.73;;;18.20;99.90;;;;;;5006087;28;20546;-88
2022/08/20 02:59:24;;;;;;;21.73;14.95;;;18.20;99.90;;;;;;5023352;28;20034;-88
2022/08/20 03:01:51;;;;;;;21.67;14.65;;;18.20;99.90;;;;;;5000192;28;20549;-88
2022/08/20 03:04:17;;;;;;;17.73;13.20;;;18.20;99.90;;;;;;4979840;28;20089;-88
2022/08/20 03:06:42;;;;;;;20.15;13.85;;;18.00;99.90;;;;;;5020080;28;20038;-88
2022/08/20 03:09:08;;;;;;;18.48;13.07;;;18.10;99.90;;;;;;5004320;28;20056;-88
2022/08/20 03:11:34;;;;;;;17.60;13.18;;;18.10;99.90;;;;;;4986530;28;20375;-87
2022/08/20 03:14:00;;;;;;;19.60;14.73;;;18.00;99.90;;;;;;4986419;28;20446;-89
2022/08/20 03:16:25;;;;;;;19.15;14.77;;;18.10;99.90;;;;;;5001124;28;20085;-88
2022/08/20 03:18:51;;;;;;;19.92;14.68;;;18.00;99.90;;;;;;5023019;28;20084;-87
2022/08/20 03:21:17;;;;;;;19.00;13.77;;;18.00;99.90;;;;;;4978627;28;20078;-89
2022/08/20 03:23:42;;;;;;;18.38;13.38;;;18.00;99.90;;;;;;5001825;28;20490;-89
2022/08/20 03:26:10;;;;;;;17.13;14.90;;;17.90;99.90;;;;;;4978186;28;20043;-88
2022/08/20 03:28:36;;;;;;;19.15;14.40;;;18.00;99.90;;;;;;5007780;28;20045;-87
2022/08/20 03:31:02;;;;;;;18.00;13.35;;;17.90;99.90;;;;;;4985670;28;20038;-88
2022/08/20 03:33:30;;;;;;;17.33;14.63;;;17.90;99.90;;;;;;5008452;28;20138;-88
2022/08/20 03:35:56;;;;;;;19.13;13.73;;;17.90;99.90;;;;;;5008882;28;20401;-88
2022/08/20 03:38:23;;;;;;;18.65;13.88;;;18.00;99.90;;;;;;4996775;28;20050;-89
2022/08/20 03:40:49;;;;;;;22.13;14.88;;;17.90;99.90;;;;;;5008203;28;20046;-88
2022/08/20 03:43:15;;;;;;;22.15;15.60;;;17.90;99.90;;;;;;5004304;28;20042;-88
2022/08/20 03:45:43;;;;;;;20.17;14.48;;;17.90;99.90;;;;;;5003456;28;20042;-87
2022/08/20 03:48:13;;;;;;;21.05;14.93;;;17.80;99.90;;;;;;4996311;28;20926;-87
2022/08/20 03:50:40;;;;;;;21.05;14.70;;;17.80;99.90;;;;;;5003475;28;20434;-88
2022/08/20 03:53:08;;;;;;;20.17;14.52;;;17.80;99.90;;;;;;5007444;28;20041;-87
2022/08/20 03:55:34;;;;;;;17.98;13.80;;;17.80;99.90;;;;;;5008274;28;20085;-88
2022/08/20 03:58:05;;;;;;;19.42;14.45;;;17.80;99.90;;;;;;5007420;28;20542;-86
2022/08/20 04:00:32;;;;;;;;;;;17.70;99.90;;;;;;4992752;28;20081;-88
2022/08/20 04:02:59;;;;;;;19.15;14.65;;;17.60;99.90;;;;;;4974841;28;19922;-87
2022/08/20 04:05:27;;;;;;;21.25;13.90;;;17.60;99.90;;;;;;4991840;28;20129;-87
2022/08/20 04:07:53;;;;;;;17.67;13.45;;;17.70;99.90;;;;;;4979279;28;20403;-86
2022/08/20 04:10:18;;;;;;;21.90;13.80;;;17.60;99.90;;;;;;4985034;28;20073;-86
2022/08/20 04:12:44;;;;;;;20.08;14.27;;;17.60;99.90;;;;;;5005538;28;20053;-87
2022/08/20 04:15:12;;;;;;;21.17;13.80;;;17.60;99.90;;;;;;4993820;28;20419;-87
2022/08/20 04:17:42;;;;;;;19.55;14.23;;;17.60;99.90;;;;;;4997705;28;20054;-87
2022/08/20 04:20:11;;;;;;;19.13;14.43;;;17.60;99.90;;;;;;4997367;28;20423;-88
2022/08/20 04:22:37;;;;;;;22.48;14.60;;;17.60;99.90;;;;;;5018350;28;20108;-88
2022/08/20 04:25:04;;;;;;;18.08;12.93;;;17.50;99.90;;;;;;4998056;28;20132;-88
2022/08/20 04:27:31;;;;;;;19.75;13.45;;;17.50;99.90;;;;;;4995595;28;20050;-88
2022/08/20 04:29:58;;;;;;;20.85;13.57;;;17.60;99.90;;;;;;4985343;28;20045;-87
2022/08/20 04:32:24;;;;;;;18.45;12.85;;;17.50;99.90;;;;;;4990531;28;20372;-88
2022/08/20 04:34:51;;;;;;;15.65;12.77;;;17.50;99.90;;;;;;5013883;28;20111;-88
2022/08/20 04:37:23;;;;;;;19.02;13.30;;;17.60;99.90;;;;;;4996190;28;20455;-88
2022/08/20 04:42:36;;;;;;;18.15;12.20;;;17.50;99.90;;;;;;4993128;28;20070;-88
2022/08/20 04:45:05;;;;;;;20.38;12.77;;;17.50;99.90;;;;;;5004584;28;20049;-87
2022/08/20 04:47:32;;;;;;;17.38;12.85;;;17.50;99.90;;;;;;5002415;28;20049;-88
2022/08/20 04:50:00;;;;;;;17.83;12.27;;;17.50;99.90;;;;;;4990041;28;20148;-88
2022/08/20 04:52:27;;;;;;;15.07;11.82;;;17.50;99.90;;;;;;4995573;28;20046;-88
2022/08/20 04:54:55;;;;;;;17.65;12.88;;;17.50;99.90;;;;;;4995200;28;20399;-88
2022/08/20 04:57:22;;;;;;;19.83;12.90;;;17.50;99.90;;;;;;5003273;28;20581;-88
2022/08/20 04:59:50;;;;;;;16.63;12.20;;;17.40;99.90;;;;;;4989834;28;20073;-88
2022/08/20 05:02:17;;;;;;;15.43;11.55;;;17.40;99.90;;;;;;4997147;28;20049;-88
2022/08/20 05:04:43;;;;;;;14.90;11.63;;;17.40;99.90;;;;;;4989407;28;20082;-87
2022/08/20 05:07:12;;;;;;;17.77;11.98;;;17.40;99.90;;;;;;4982530;28;20451;-88
2022/08/20 05:09:38;;;;;;;16.48;10.80;;;17.40;99.90;;;;;;4979750;28;20117;-89
2022/08/20 05:12:03;;;;;;;16.88;11.23;;;17.30;99.90;;;;;;4983818;28;20049;-88
2022/08/20 05:14:30;;;;;;;15.15;11.40;;;17.30;99.90;;;;;;4999650;28;20038;-87
2022/08/20 05:16:58;;;;;;;15.63;10.48;;;17.30;99.90;;;;;;4997104;28;20053;-90
2022/08/20 05:19:24;;;;;;;15.25;11.05;;;17.30;99.90;;;;;;4995164;28;20097;-88
2022/08/20 05:21:52;;;;;;;17.02;10.32;;;17.10;99.90;;;;;;4983744;28;20172;-89
2022/08/20 05:24:20;;;;;;;14.57;9.65;;;17.20;99.90;;;;;;4998571;28;20045;-88
2022/08/20 05:26:46;;;;;;;14.32;10.30;;;17.30;99.90;;;;;;4995182;28;20068;-89
2022/08/20 05:29:12;;;;;;;14.10;10.20;;;17.20;99.90;;;;;;4982281;28;20684;-89
2022/08/20 05:31:38;;;;;;;13.95;10.50;;;17.20;99.90;;;;;;5000355;28;20046;-91
2022/08/20 05:34:08;;;;;;;16.25;10.57;;;17.20;99.90;;;;;;4996789;28;20110;-91
2022/08/20 05:36:35;;;;;;;17.45;10.15;;;17.10;99.90;;;;;;4980281;28;20456;-87
2022/08/20 05:39:01;;;;;;;16.85;10.45;;;17.20;99.90;;;;;;4995690;28;20049;-89
2022/08/20 05:41:29;;;;;;;17.33;10.85;;;17.10;99.90;;;;;;4977836;28;20043;-90
2022/08/20 05:43:56;;;;;;;16.52;11.77;;;17.10;99.90;;;;;;5001722;28;20038;-91
2022/08/20 05:46:22;;;;;;;15.45;10.55;;;17.10;99.90;;;;;;5000335;28;20038;-90
2022/08/20 05:48:47;;;;;;;15.73;10.55;;;17.20;99.90;;;;;;5006520;28;20049;-90
2022/08/20 05:51:14;;;;;;;15.48;10.00;;;17.20;99.90;;;;;;4992377;28;20042;-90
2022/08/20 05:53:40;;;;;;;17.38;9.77;;;17.30;99.90;;;;;;4994486;28;20046;-89
2022/08/20 05:56:06;;;;;;;17.08;10.15;;;17.40;99.90;;;;;;5006454;28;20042;-92
2022/08/20 05:58:32;;;;;;;15.30;10.00;;;17.30;99.90;;;;;;5009355;28;20096;-93
2022/08/20 06:00:58;;;;;;;13.20;8.98;;;17.40;99.90;;;;;;4985197;28;20412;-91
2022/08/20 06:06:08;;;;;;;15.10;9.30;;;17.30;99.90;;;;;;4995453;28;20046;-92
2022/08/20 06:08:34;;;;;;;15.38;9.45;;;17.30;99.90;;;;;;4992815;28;20057;-91
2022/08/20 06:10:59;;;;;;;15.85;9.60;;;17.30;99.90;;;;;;4992126;28;20045;-90
2022/08/20 06:13:26;;;;;;;16.35;9.90;;;17.40;99.90;;;;;;5003098;28;20105;-91
2022/08/20 06:15:52;;;;;;;13.82;8.95;;;17.40;99.90;;;;;;5004160;28;20425;-90
2022/08/20 06:18:17;;;;;;;14.43;9.25;;;17.40;99.90;;;;;;5001317;28;20117;-89
2022/08/20 06:20:44;;;;;;;12.93;9.25;;;17.50;99.90;;;;;;4997237;28;20046;-90
2022/08/20 06:23:10;;;;;;;13.68;9.30;;;17.60;99.90;;;;;;4972989;28;20042;-90
2022/08/20 06:25:40;;;;;;;14.75;8.80;;;17.60;99.90;;;;;;4971278;28;20445;-88
2022/08/20 06:28:05;;;;;;;14.60;8.60;;;17.70;99.90;;;;;;4962795;28;20091;-89
2022/08/20 06:30:31;;;;;;;13.88;6.60;;;17.90;99.90;;;;;;4982935;28;20490;-90
2022/08/20 06:32:58;;;;;;;13.48;7.18;;;17.80;99.90;;;;;;4973176;28;20095;-90
2022/08/20 06:35:24;;;;;;;11.93;6.45;;;17.90;99.90;;;;;;4971896;28;20038;-91
2022/08/20 06:37:51;;;;;;;16.50;7.35;;;17.80;99.90;;;;;;4966812;28;20053;-92
2022/08/20 06:40:25;;;;;;;12.88;6.85;;;17.80;99.90;;;;;;4979563;28;20316;-90
2022/08/20 06:42:51;;;;;;;12.98;7.05;;;17.80;99.90;;;;;;4969351;28;20354;-88
2022/08/20 06:45:24;;;;;;;14.70;7.78;;;17.80;99.90;;;;;;4981588;28;20050;-91
2022/08/20 06:47:55;;;;;;;13.30;7.35;;;17.80;99.90;;;;;;4975905;28;20132;-88
2022/08/20 06:50:26;;;;;;;12.15;6.53;;;17.80;99.90;;;;;;4968684;28;20057;-89
2022/08/20 06:52:52;;;;;;;12.27;7.00;;;17.80;99.90;;;;;;4966175;28;20040;-91
2022/08/20 06:55:18;;;;;;;12.70;7.10;;;17.90;99.90;;;;;;4978270;28;20398;-93
2022/08/20 06:57:44;;;;;;;16.00;6.65;;;18.00;99.90;;;;;;4981585;28;20156;-94
2022/08/20 07:00:13;;;;;;;13.30;6.25;;;18.00;99.90;;;;;;4970333;28;20041;-94
2022/08/20 07:02:40;;;;;;;14.75;6.75;;;18.10;99.90;;;;;;4963038;28;20136;-93
2022/08/20 07:05:06;;;;;;;11.73;6.18;;;18.20;99.90;;;;;;4990405;28;20034;-93
2022/08/20 07:08:04;;;;;;;13.18;6.40;;;18.20;99.90;;;;;;5019546;28;20052;-94
2022/08/20 07:10:30;;;;;;;12.77;5.63;;;18.30;99.90;;;;;;4983695;28;20057;-94
2022/08/20 07:12:59;;;;;;;11.43;5.57;;;18.30;99.90;;;;;;5006341;28;20509;-96
2022/08/20 07:23:46;;;;;;;;;;;;;;;;;;;;;
2022/08/20 07:34:17;;;;;;;11.15;3.00;;;18.70;99.90;;;;;;5445865;22;20485;-96
2022/08/20 08:13:43;;;;;;;7.20;1.70;;;19.30;99.90;;;;;;5488243;23;20025;31
2022/08/20 08:41:48;;;;;;;8.93;2.22;;;19.70;99.90;;;;;;5392093;23;20053;-96
2022/08/20 08:44:22;;;;;;;7.25;1.88;;;19.70;99.90;;;;;;4992775;28;20074;-95
2022/08/20 08:52:39;;;;;;;6.32;1.42;;;19.90;99.90;;;;;;5584160;23;20995;-93
2022/08/20 08:55:08;;;;;;;6.95;1.60;;;19.90;99.90;;;;;;5033991;28;20049;-93
2022/08/20 08:57:35;;;;;;;7.35;1.33;;;20.00;99.90;;;;;;5032542;28;20048;-91
2022/08/20 09:00:13;;;;;;;6.45;1.70;;;20.00;99.90;;;;;;5011877;28;20048;-91
2022/08/20 09:02:41;;;;;;;5.75;2.00;;;20.00;99.90;;;;;;5028840;28;20069;-94
2022/08/20 09:05:14;;;;;;;6.30;1.40;;;19.90;99.90;;;;;;5026001;28;20069;-93
2022/08/20 09:10:31;;;;;;;5.85;1.60;;;20.00;99.90;;;;;;5508798;23;20383;-92
2022/08/20 09:30:18;;;;;;;6.15;1.42;;;20.30;99.90;;;;;;5059174;23;20030;-94
2022/08/20 09:32:44;;;;;;;6.38;1.38;;;20.40;99.90;;;;;;4986633;28;20073;-92
2022/08/20 09:35:14;;;;;;;7.32;1.27;;;20.40;99.90;;;;;;5072267;23;20057;-93
2022/08/20 09:37:40;;;;;;;9.03;1.47;;;20.30;99.90;;;;;;4988889;28;20058;-88
2022/08/20 09:40:07;;;;;;;7.82;1.52;;;20.40;99.90;;;;;;5009417;28;20308;-96
2022/08/20 09:42:36;;;;;;;6.63;1.30;;;20.40;99.90;;;;;;5009053;28;20050;-95
2022/08/20 09:45:03;;;;;;;6.75;1.48;;;20.40;99.90;;;;;;4985283;28;20538;-93
2022/08/20 09:47:28;;;;;;;7.35;1.38;;;20.40;99.90;;;;;;4985149;28;20057;-93
2022/08/20 09:49:54;;;;;;;6.60;1.65;;;20.40;99.90;;;;;;4988082;28;20163;-91
2022/08/20 09:52:32;;;;;;;6.47;1.40;;;20.40;99.90;;;;;;4984100;28;20550;-93
2022/08/20 09:55:01;;;;;;;6.82;1.40;;;20.50;99.90;;;;;;4984794;28;20772;-92
2022/08/20 09:57:29;;;;;;;7.00;1.40;;;20.50;99.90;;;;;;4991942;28;20048;-91
2022/08/20 09:59:59;;;;;;;5.70;1.50;;;20.50;99.90;;;;;;5007346;28;20051;-95
2022/08/20 10:02:25;;;;;;;5.40;1.37;;;20.50;99.90;;;;;;5023997;28;20109;-94
2022/08/20 10:04:51;;;;;;;5.80;1.40;;;20.60;99.90;;;;;;5003885;28;20247;-94
2022/08/20 10:07:17;;;;;;;7.47;1.52;;;20.70;99.90;;;;;;4992546;28;20439;-95
2022/08/20 10:09:43;;;;;;;5.35;1.50;;;20.70;99.90;;;;;;4992229;28;20483;-89
2022/08/20 10:12:10;;;;;;;6.05;1.42;;;20.80;99.90;;;;;;4992708;28;20446;-96
2022/08/20 10:14:35;;;;;;;7.63;1.50;;;20.90;99.90;;;;;;4998691;28;20054;-96
2022/08/20 10:17:02;;;;;;;5.55;1.40;;;20.90;99.90;;;;;;5013368;28;20240;-94
2022/08/20 10:19:29;;;;;;;7.47;1.55;;;21.00;99.90;;;;;;5000779;28;20026;-94
2022/08/20 10:21:55;;;;;;;5.45;1.45;;;20.90;99.90;;;;;;5000741;28;20042;-95
2022/08/20 10:24:21;;;;;;;7.38;1.70;;;21.10;99.90;;;;;;5010461;28;20352;-96
2022/08/20 10:26:48;;;;;;;6.15;1.50;;;21.10;99.90;;;;;;5008715;28;20066;-96
2022/08/20 10:29:14;;;;;;;8.52;1.60;;;21.10;99.90;;;;;;4989797;28;20046;-91
2022/08/20 10:31:40;;;;;;;6.78;1.50;;;21.30;99.90;;;;;;5012391;28;20048;-95
2022/08/20 10:34:07;;;;;;;6.25;1.27;;;21.30;99.90;;;;;;5275458;23;20050;-95
2022/08/20 10:36:33;;;;;;;6.70;1.60;;;21.40;99.90;;;;;;5019437;23;20526;-92
2022/08/20 10:39:00;;;;;;;8.35;1.83;;;21.40;99.90;;;;;;4974379;28;20051;-94
2022/08/20 10:41:27;;;;;;;5.50;1.60;;;21.40;99.90;;;;;;4987746;28;20049;-95
2022/08/20 10:43:52;;;;;;;6.18;1.40;;;21.50;99.90;;;;;;4963057;28;20589;-91
2022/08/20 10:46:18;;;;;;;7.03;1.48;;;21.50;99.90;;;;;;4977760;28;20082;-95
2022/08/20 10:48:45;;;;;;;7.90;1.55;;;21.60;99.90;;;;;;4974055;28;20382;-91
2022/08/20 10:53:36;;;;;;;5.88;1.30;;;21.70;99.90;;;;;;5019398;23;20124;-95
2022/08/20 10:56:02;;;;;;;8.00;1.40;;;21.70;99.90;;;;;;5017389;28;20115;-93
2022/08/20 10:58:28;;;;;;;7.88;1.92;;;21.80;99.90;;;;;;5020118;28;20500;-92
2022/08/20 11:00:53;;;;;;;5.82;1.40;;;21.80;99.90;;;;;;5018098;28;20041;-90
2022/08/20 11:03:19;;;;;;;6.03;1.40;;;21.80;99.90;;;;;;5022557;28;20076;-91
2022/08/20 11:05:48;;;;;;;6.32;1.80;;;21.90;99.90;;;;;;5027574;28;20046;-93
2022/08/20 11:08:14;;;;;;;5.20;1.50;;;21.90;99.90;;;;;;5023233;28;20026;-93
2022/08/20 11:10:41;;;;;;;4.85;1.40;;;21.80;99.90;;;;;;5010979;28;20051;-93
2022/08/20 11:13:07;;;;;;;6.50;1.40;;;21.90;99.90;;;;;;5026963;28;20049;-95
2022/08/20 11:15:36;;;;;;;5.95;1.58;;;22.00;99.90;;;;;;5038364;28;20106;-95
2022/08/20 11:18:03;;;;;;;6.68;1.50;;;22.00;99.90;;;;;;5004263;28;20079;-89
2022/08/20 11:20:30;;;;;;;6.40;1.30;;;22.10;99.90;;;;;;5000670;28;20080;-92
2022/08/20 11:22:57;;;;;;;5.35;1.45;;;22.20;99.90;;;;;;5010506;28;20049;-93
2022/08/20 11:25:28;;;;;;;5.53;1.30;;;22.30;99.90;;;;;;5041543;28;20053;-95
2022/08/20 11:30:51;;;;;;;7.35;1.58;;;22.30;99.90;;;;;;5288999;23;21186;-96
2022/08/20 11:33:19;;;;;;;7.25;1.65;;;22.40;99.90;;;;;;4981161;28;20050;-95
2022/08/20 11:49:18;;;;;;;6.43;1.40;;;22.50;99.90;;;;;;5261990;22;20057;-95
2022/08/20 11:51:44;;;;;;;7.60;1.63;;;22.50;99.90;;;;;;5080043;23;20070;-96
2022/08/20 11:54:10;;;;;;;6.25;1.80;;;22.50;99.90;;;;;;5056597;28;20045;-93
2022/08/20 11:56:35;;;;;;;5.97;1.60;;;22.40;99.90;;;;;;5071328;28;20052;-96
2022/08/20 11:59:01;;;;;;;6.43;1.80;;;22.40;99.90;;;;;;5050849;28;20648;-93
2022/08/20 12:01:30;;;;;;;7.82;1.92;;;22.40;99.90;;;;;;5056921;28;20074;-95
2022/08/20 12:03:56;;;;;;;4.65;1.40;;;22.50;99.80;;;;;;5060223;28;20052;-95
2022/08/20 12:09:28;;;;;;;6.03;1.85;;;22.40;99.80;;;;;;5212100;22;1237546;-96
2022/08/20 12:11:54;;;;;;;7.43;1.77;;;22.20;99.30;;;;;;5058956;28;20048;-95
2022/08/20 12:14:23;;;;;;;9.43;1.90;;;22.30;98.90;;;;;;5054058;28;20110;-95
2022/08/20 12:16:49;;;;;;;7.00;1.80;;;22.30;98.80;;;;;;5053159;28;20049;-96
2022/08/20 12:19:15;;;;;;;7.07;1.77;;;22.30;99.80;;;;;;5062617;28;20063;-96
2022/08/20 12:21:40;;;;;;;7.60;1.80;;;22.30;99.90;;;;;;5054808;28;20170;-95
2022/08/20 12:24:06;;;;;;;6.82;2.20;;;22.40;99.90;;;;;;5062584;28;20098;-95
2022/08/20 12:26:36;;;;;;;7.38;1.90;;;22.50;99.90;;;;;;5093522;28;20051;-95
2022/08/20 12:29:04;;;;;;;7.77;1.90;;;22.60;99.60;;;;;;5071512;23;20049;-96
2022/08/20 12:31:30;;;;;;;7.57;2.05;;;22.70;99.90;;;;;;5135075;23;20057;-94
2022/08/20 12:33:56;;;;;;;5.57;1.80;;;22.50;99.90;;;;;;5068349;28;20052;-95
2022/08/20 12:36:25;;;;;;;6.57;1.85;;;22.60;99.10;;;;;;5180153;22;20052;-96
2022/08/20 12:38:50;;;;;;;7.43;1.80;;;22.60;98.60;;;;;;5163616;22;20088;-94
2022/08/20 12:41:19;;;;;;;6.40;1.70;;;22.60;98.00;;;;;;5055399;28;20041;-95
2022/08/20 12:43:45;;;;;;;6.80;1.80;;;22.60;98.20;;;;;;5036369;28;20096;-95
2022/08/20 12:46:10;;;;;;;6.65;1.60;;;22.70;97.80;;;;;;5052333;28;20049;-95
2022/08/20 12:51:25;;;;;;;5.68;1.73;;;22.80;98.20;;;;;;5041983;22;20085;-96
2022/08/20 12:53:51;;;;;;;8.00;1.70;;;22.70;98.70;;;;;;4989013;28;20550;-95
2022/08/20 12:56:16;;;;;;;6.13;1.70;;;22.80;97.90;;;;;;5011717;23;20061;-94
2022/08/20 12:58:44;;;;;;;7.45;1.65;;;22.80;97.60;;;;;;5075335;22;20037;-95
2022/08/20 13:01:14;;;;;;;7.85;2.10;;;22.80;97.00;;;;;;4982926;28;20418;-96
2022/08/20 13:03:40;;;;;;;7.65;1.95;;;22.80;96.50;;;;;;4971993;28;20050;-95
2022/08/20 13:06:06;;;;;;;6.65;1.70;;;22.70;96.50;;;;;;4976801;28;20095;-93
2022/08/20 13:21:22;;;;;;;7.07;2.10;;;22.90;98.20;;;;;;5481626;22;20049;-96
2022/08/20 13:23:50;;;;;;;8.30;1.85;;;22.90;99.00;;;;;;5188994;22;20086;-96
2022/08/20 13:26:19;;;;;;;8.30;1.70;;;23.00;99.80;;;;;;5162843;23;20085;-94
2022/08/20 13:28:45;;;;;;;7.50;1.85;;;22.90;99.50;;;;;;4972989;28;20517;-91
2022/08/20 13:31:10;;;;;;;7.55;1.80;;;22.90;99.90;;;;;;4973246;28;20050;-91
2022/08/20 13:33:36;;;;;;;7.47;1.80;;;22.80;99.90;;;;;;4987262;28;20066;-92
2022/08/20 13:36:02;;;;;;;6.40;2.03;;;22.80;99.90;;;;;;4966976;28;20483;-91
2022/08/20 13:38:27;;;;;;;6.57;1.90;;;22.70;99.90;;;;;;4954984;28;20097;-92
2022/08/20 13:40:53;;;;;;;5.68;1.73;;;22.70;99.90;;;;;;4970345;28;20042;-93
2022/08/20 13:43:18;;;;;;;5.47;1.75;;;22.60;99.90;;;;;;4987123;28;20077;-93
2022/08/20 13:45:44;;;;;;;7.13;2.10;;;22.70;99.90;;;;;;4955680;28;20503;-91
2022/08/20 13:48:10;;;;;;;6.88;1.70;;;22.60;99.90;;;;;;4953945;28;20058;-93
2022/08/20 13:50:36;;;;;;;8.32;1.58;;;22.80;99.90;;;;;;4963030;28;20039;-95
2022/08/20 13:53:01;;;;;;;6.63;1.73;;;22.70;99.90;;;;;;4962160;28;20668;-92
2022/08/20 13:55:52;;;;;;;6.88;1.80;;;22.90;99.90;;;;;;4979987;28;20027;-93
2022/08/20 13:58:23;;;;;;;8.23;2.08;;;22.90;99.30;;;;;;5006774;23;20055;-95
2022/08/20 14:00:49;;;;;;;7.65;1.85;;;22.90;99.20;;;;;;4936699;28;20066;-91
2022/08/20 14:03:15;;;;;;;7.57;1.83;;;22.90;99.10;;;;;;4971477;28;20043;-95
2022/08/20 14:05:45;;;;;;;9.38;2.00;;;22.80;98.90;;;;;;4950886;28;20043;-95
2022/08/20 14:08:22;;;;;;;6.22;1.70;;;22.70;99.10;;;;;;4957144;28;20054;-95
2022/08/20 14:10:51;;;;;;;7.03;1.85;;;22.70;98.60;;;;;;4942177;28;20027;-96
2022/08/20 14:13:32;;;;;;;7.20;1.70;;;22.70;99.80;;;;;;4982409;28;20046;-96
2022/08/20 14:15:58;;;;;;;4.65;1.50;;;22.70;97.90;;;;;;4940450;28;20034;-94
2022/08/20 14:18:24;;;;;;;7.25;1.80;;;22.80;98.30;;;;;;4943038;28;20074;-96
2022/08/20 14:20:50;;;;;;;6.55;1.63;;;22.80;97.50;;;;;;4928717;28;20043;-95
2022/08/20 14:23:16;;;;;;;7.65;1.75;;;22.80;97.90;;;;;;4934248;28;20047;-95
2022/08/20 14:25:49;;;;;;;6.88;1.92;;;22.80;97.20;;;;;;4944756;28;20066;-93
2022/08/20 14:28:27;;;;;;;7.32;2.22;;;22.80;96.80;;;;;;4949546;28;20560;-96
2022/08/20 14:30:59;;;;;;;6.30;2.17;;;22.70;96.80;;;;;;5071475;23;20055;-95
2022/08/20 14:33:24;;;;;;;7.50;2.20;;;22.70;96.80;;;;;;5004698;28;20057;-96
2022/08/20 14:35:50;;;;;;;7.85;1.75;;;22.70;97.00;;;;;;4994122;28;20042;-95
2022/08/20 14:38:16;;;;;;;6.80;1.70;;;22.60;97.40;;;;;;4984958;28;20143;-93
2022/08/20 14:40:42;;;;;;;7.82;1.80;;;22.60;96.90;;;;;;4976748;28;20089;-96
2022/08/20 14:43:14;;;;;;;6.18;1.58;;;22.70;97.20;;;;;;4982288;28;20069;-96
2022/08/20 14:45:39;;;;;;;9.50;3.72;;;22.70;96.90;;;;;;4985969;28;20038;-91
2022/08/20 14:48:08;;;;;;;6.03;1.63;;;22.80;95.80;;;;;;4980691;28;20042;-96
2022/08/20 14:50:35;;;;;;;7.00;1.55;;;22.90;95.20;;;;;;4978493;28;20490;-92
2022/08/20 14:58:14;;;;;;;7.85;1.92;;;23.10;95.90;;;;;;5026395;26;20807;-94
2022/08/20 15:00:57;;;;;;;7.85;1.80;;;23.10;95.20;;;;;;5005309;28;20061;-93
2022/08/20 15:03:29;;;;;;;6.47;1.85;;;23.20;94.30;;;;;;5025671;28;20041;-94
2022/08/20 15:05:55;;;;;;;7.32;1.90;;;23.20;94.50;;;;;;4988878;28;20406;-90
2022/08/20 15:08:20;;;;;;;7.38;1.80;;;23.20;94.10;;;;;;5000683;28;20109;-91
2022/08/20 15:10:46;;;;;;;7.63;1.90;;;23.20;94.80;;;;;;5003180;28;20493;-95
2022/08/20 15:13:14;;;;;;;5.53;1.67;;;23.10;94.90;;;;;;5000312;28;20449;-93
2022/08/20 15:15:40;;;;;;;6.95;1.95;;;23.00;95.50;;;;;;5005607;28;20042;-93